Portada
METAR-TAF:

METAR-TAF

Aeropuertos :

Base Aérea de Alcantarilla

Murcia, España

latitud: 37-57N, longitud: 001-14W, altitud: 75 m

Observación

El informe se hizo hace 9 horas y 20 minutos, a las 18:00 UTC
Viento 12 kt del este
Temperatura 24°C
Humedad 47%
Presión 1011 hPa
Visibilidad 10 km o más
sin nubes por debajo de 1500 m y sin presencia de cumulonimbus.

METAR: LERI 241800Z 09012KT CAVOK 24/12 Q1011 NOSIG

Hora: 05:20 (03:20 UTC)

Pronóstico

El informe se hizo hace 16 horas y 20 minutos, a las 11:00 UTC
Pronóstico válido del 24 a las 12 UTC al 24 a las 21 UTC
Viento 13 kt del este
Visibilidad 10 km o más
Escasas nubes a una altura de 3500 ft
Temporalmente
del 24 a las 12 UTC al 24 a las 18 UTC
Viento 16 kt del este-noreste con ráfagas de 26 kt
Evolucionando progresivamente
del 24 a las 19 UTC al 24 a las 21 UTC
Viento 3 kt con dirección variable

TAF: LERI 241100Z 2412/2421 08013KT 9999 FEW035 TEMPO 2412/2418 07016G26KT BECMG 2419/2421 VRB03KT

Observaciones y pronósticos meteorológicos de más de 4000 aeropuertos (mensajes METAR y TAF).

Los puntos amarillos y rojos representan las estaciones disponibles.

Ponga el ratón en el punto deseado para ver el nombre de la estación.

Haga clic para ver las observaciones y los pronósticos meteorológicos.

Para cambiar el mapa : haga clic en los botones verdes con una cruz de color negro para hacer un zoom, en el botón verde con un guión para alejar o en las flechas verdes para mapas adyacentes.


METAR-TAF: